sensor_id;sensor_type;location;lat;lon;timestamp;P1;durP1;ratioP1;P2;durP2;ratioP2
56999;SDS011;42891;50.006;21.964;2024-03-22T00:00:55;94.38;;;54.15;;
56999;SDS011;42891;50.006;21.964;2024-03-22T00:04:56;93.30;;;52.40;;
56999;SDS011;42891;50.006;21.964;2024-03-22T00:08:56;88.95;;;50.05;;
56999;SDS011;42891;50.006;21.964;2024-03-22T00:12:56;74.93;;;43.25;;
56999;SDS011;42891;50.006;21.964;2024-03-22T00:16:57;75.22;;;41.45;;
56999;SDS011;42891;50.006;21.964;2024-03-22T00:20:57;64.57;;;38.90;;
56999;SDS011;42891;50.006;21.964;2024-03-22T00:24:57;60.80;;;35.35;;
56999;SDS011;42891;50.006;21.964;2024-03-22T00:28:58;56.78;;;30.80;;
56999;SDS011;42891;50.006;21.964;2024-03-22T00:32:58;55.67;;;29.85;;
56999;SDS011;42891;50.006;21.964;2024-03-22T00:36:58;56.38;;;32.25;;
56999;SDS011;42891;50.006;21.964;2024-03-22T00:40:59;60.83;;;33.25;;
56999;SDS011;42891;50.006;21.964;2024-03-22T00:44:59;53.63;;;32.10;;
56999;SDS011;42891;50.006;21.964;2024-03-22T00:48:59;56.63;;;30.40;;
56999;SDS011;42891;50.006;21.964;2024-03-22T00:53:00;45.90;;;27.10;;
56999;SDS011;42891;50.006;21.964;2024-03-22T00:57:02;46.33;;;25.45;;
56999;SDS011;42891;50.006;21.964;2024-03-22T01:01:03;48.08;;;24.60;;
56999;SDS011;42891;50.006;21.964;2024-03-22T01:05:03;43.20;;;26.13;;
56999;SDS011;42891;50.006;21.964;2024-03-22T01:09:04;48.72;;;27.45;;
56999;SDS011;42891;50.006;21.964;2024-03-22T01:13:04;45.55;;;25.05;;
56999;SDS011;42891;50.006;21.964;2024-03-22T01:17:04;46.05;;;25.45;;
56999;SDS011;42891;50.006;21.964;2024-03-22T01:21:04;47.60;;;26.47;;
56999;SDS011;42891;50.006;21.964;2024-03-22T01:25:05;45.20;;;25.65;;
56999;SDS011;42891;50.006;21.964;2024-03-22T01:29:06;50.72;;;30.30;;
56999;SDS011;42891;50.006;21.964;2024-03-22T01:33:06;45.75;;;26.65;;
56999;SDS011;42891;50.006;21.964;2024-03-22T01:37:06;45.10;;;26.47;;
56999;SDS011;42891;50.006;21.964;2024-03-22T01:41:07;47.80;;;26.40;;
56999;SDS011;42891;50.006;21.964;2024-03-22T01:45:07;49.47;;;27.75;;
56999;SDS011;42891;50.006;21.964;2024-03-22T01:49:09;51.72;;;28.23;;
56999;SDS011;42891;50.006;21.964;2024-03-22T01:53:11;51.53;;;29.77;;
56999;SDS011;42891;50.006;21.964;2024-03-22T01:57:11;46.08;;;28.50;;
56999;SDS011;42891;50.006;21.964;2024-03-22T02:01:12;44.30;;;27.52;;
56999;SDS011;42891;50.006;21.964;2024-03-22T02:05:13;38.67;;;25.47;;
56999;SDS011;42891;50.006;21.964;2024-03-22T02:09:15;41.85;;;24.92;;
56999;SDS011;42891;50.006;21.964;2024-03-22T02:13:15;42.95;;;25.45;;
56999;SDS011;42891;50.006;21.964;2024-03-22T02:17:16;45.00;;;25.08;;
56999;SDS011;42891;50.006;21.964;2024-03-22T02:21:16;45.47;;;26.38;;
56999;SDS011;42891;50.006;21.964;2024-03-22T02:25:17;48.88;;;25.58;;
56999;SDS011;42891;50.006;21.964;2024-03-22T02:29:17;37.90;;;23.45;;
56999;SDS011;42891;50.006;21.964;2024-03-22T02:33:17;34.80;;;21.55;;
56999;SDS011;42891;50.006;21.964;2024-03-22T02:37:18;32.28;;;20.05;;
56999;SDS011;42891;50.006;21.964;2024-03-22T02:41:18;41.73;;;22.00;;
56999;SDS011;42891;50.006;21.964;2024-03-22T02:45:19;31.98;;;19.98;;
56999;SDS011;42891;50.006;21.964;2024-03-22T02:49:19;31.50;;;19.73;;
56999;SDS011;42891;50.006;21.964;2024-03-22T02:53:20;32.50;;;19.15;;
56999;SDS011;42891;50.006;21.964;2024-03-22T02:57:20;31.23;;;18.80;;
56999;SDS011;42891;50.006;21.964;2024-03-22T03:01:21;36.08;;;19.98;;
56999;SDS011;42891;50.006;21.964;2024-03-22T03:05:21;30.55;;;18.65;;
56999;SDS011;42891;50.006;21.964;2024-03-22T03:09:23;28.38;;;19.27;;
56999;SDS011;42891;50.006;21.964;2024-03-22T03:13:23;32.47;;;19.90;;
56999;SDS011;42891;50.006;21.964;2024-03-22T03:17:24;34.78;;;19.50;;
56999;SDS011;42891;50.006;21.964;2024-03-22T03:21:24;29.90;;;19.10;;
56999;SDS011;42891;50.006;21.964;2024-03-22T03:25:25;36.38;;;20.15;;
56999;SDS011;42891;50.006;21.964;2024-03-22T03:29:26;36.50;;;21.13;;
56999;SDS011;42891;50.006;21.964;2024-03-22T03:33:26;34.92;;;21.17;;
56999;SDS011;42891;50.006;21.964;2024-03-22T03:37:26;37.13;;;20.85;;
56999;SDS011;42891;50.006;21.964;2024-03-22T03:41:27;37.72;;;21.73;;
56999;SDS011;42891;50.006;21.964;2024-03-22T03:45:27;35.70;;;21.98;;
56999;SDS011;42891;50.006;21.964;2024-03-22T03:49:28;36.40;;;21.10;;
56999;SDS011;42891;50.006;21.964;2024-03-22T03:53:29;34.92;;;21.42;;
56999;SDS011;42891;50.006;21.964;2024-03-22T03:57:29;34.42;;;21.55;;
56999;SDS011;42891;50.006;21.964;2024-03-22T04:01:30;32.43;;;20.87;;
56999;SDS011;42891;50.006;21.964;2024-03-22T04:05:30;35.53;;;21.23;;
56999;SDS011;42891;50.006;21.964;2024-03-22T04:09:30;33.70;;;21.65;;
56999;SDS011;42891;50.006;21.964;2024-03-22T04:13:31;35.28;;;20.63;;
56999;SDS011;42891;50.006;21.964;2024-03-22T04:17:31;42.97;;;23.20;;
56999;SDS011;42891;50.006;21.964;2024-03-22T04:21:32;33.10;;;21.10;;
56999;SDS011;42891;50.006;21.964;2024-03-22T04:25:32;34.83;;;21.47;;
56999;SDS011;42891;50.006;21.964;2024-03-22T04:29:32;31.80;;;21.45;;
56999;SDS011;42891;50.006;21.964;2024-03-22T04:33:33;35.55;;;22.92;;
56999;SDS011;42891;50.006;21.964;2024-03-22T04:37:33;37.15;;;22.30;;
56999;SDS011;42891;50.006;21.964;2024-03-22T04:41:34;42.33;;;23.58;;
56999;SDS011;42891;50.006;21.964;2024-03-22T04:45:34;44.35;;;23.52;;
56999;SDS011;42891;50.006;21.964;2024-03-22T04:49:34;39.17;;;24.45;;
56999;SDS011;42891;50.006;21.964;2024-03-22T04:53:35;38.30;;;22.60;;
56999;SDS011;42891;50.006;21.964;2024-03-22T04:57:35;43.60;;;25.58;;
56999;SDS011;42891;50.006;21.964;2024-03-22T05:01:36;43.60;;;26.85;;
56999;SDS011;42891;50.006;21.964;2024-03-22T05:05:36;44.03;;;26.33;;
56999;SDS011;42891;50.006;21.964;2024-03-22T05:09:37;38.22;;;23.83;;
56999;SDS011;42891;50.006;21.964;2024-03-22T05:13:37;41.08;;;24.63;;
56999;SDS011;42891;50.006;21.964;2024-03-22T05:17:40;43.85;;;25.98;;
56999;SDS011;42891;50.006;21.964;2024-03-22T05:21:41;42.22;;;24.88;;
56999;SDS011;42891;50.006;21.964;2024-03-22T05:25:42;42.15;;;24.92;;
56999;SDS011;42891;50.006;21.964;2024-03-22T05:29:42;43.20;;;23.70;;
56999;SDS011;42891;50.006;21.964;2024-03-22T05:33:43;42.50;;;25.27;;
56999;SDS011;42891;50.006;21.964;2024-03-22T05:37:43;44.08;;;25.17;;
56999;SDS011;42891;50.006;21.964;2024-03-22T05:41:43;47.72;;;26.25;;
56999;SDS011;42891;50.006;21.964;2024-03-22T05:45:44;44.40;;;26.77;;
56999;SDS011;42891;50.006;21.964;2024-03-22T05:49:44;47.35;;;27.77;;
56999;SDS011;42891;50.006;21.964;2024-03-22T05:53:46;49.45;;;27.20;;
56999;SDS011;42891;50.006;21.964;2024-03-22T05:57:46;50.53;;;29.43;;
56999;SDS011;42891;50.006;21.964;2024-03-22T06:01:47;50.22;;;31.20;;
56999;SDS011;42891;50.006;21.964;2024-03-22T06:05:47;45.42;;;29.23;;
56999;SDS011;42891;50.006;21.964;2024-03-22T06:09:49;52.72;;;30.20;;
56999;SDS011;42891;50.006;21.964;2024-03-22T06:13:49;51.77;;;29.00;;
56999;SDS011;42891;50.006;21.964;2024-03-22T06:17:51;52.20;;;29.52;;
56999;SDS011;42891;50.006;21.964;2024-03-22T06:21:51;45.53;;;28.73;;
56999;SDS011;42891;50.006;21.964;2024-03-22T06:25:52;50.88;;;28.80;;
56999;SDS011;42891;50.006;21.964;2024-03-22T06:29:53;48.30;;;28.88;;
56999;SDS011;42891;50.006;21.964;2024-03-22T06:33:53;48.88;;;30.33;;
56999;SDS011;42891;50.006;21.964;2024-03-22T06:37:53;53.40;;;31.85;;
56999;SDS011;42891;50.006;21.964;2024-03-22T06:41:54;49.53;;;30.27;;
56999;SDS011;42891;50.006;21.964;2024-03-22T06:45:54;52.22;;;33.63;;
56999;SDS011;42891;50.006;21.964;2024-03-22T06:49:54;50.23;;;31.33;;
56999;SDS011;42891;50.006;21.964;2024-03-22T06:53:55;60.50;;;35.83;;
56999;SDS011;42891;50.006;21.964;2024-03-22T06:57:55;52.33;;;32.47;;
56999;SDS011;42891;50.006;21.964;2024-03-22T07:01:55;52.33;;;33.25;;
56999;SDS011;42891;50.006;21.964;2024-03-22T07:05:56;69.50;;;37.33;;
56999;SDS011;42891;50.006;21.964;2024-03-22T07:10:01;57.55;;;35.78;;
56999;SDS011;42891;50.006;21.964;2024-03-22T07:14:02;63.33;;;40.30;;
56999;SDS011;42891;50.006;21.964;2024-03-22T07:18:02;64.90;;;39.65;;
56999;SDS011;42891;50.006;21.964;2024-03-22T07:22:03;63.50;;;37.15;;
56999;SDS011;42891;50.006;21.964;2024-03-22T07:26:04;65.53;;;39.25;;
56999;SDS011;42891;50.006;21.964;2024-03-22T07:30:06;58.90;;;36.85;;
56999;SDS011;42891;50.006;21.964;2024-03-22T07:34:06;60.60;;;38.17;;
56999;SDS011;42891;50.006;21.964;2024-03-22T07:38:07;65.45;;;38.65;;
56999;SDS011;42891;50.006;21.964;2024-03-22T07:42:07;72.57;;;41.67;;
56999;SDS011;42891;50.006;21.964;2024-03-22T07:46:07;76.70;;;43.90;;
56999;SDS011;42891;50.006;21.964;2024-03-22T07:50:09;70.78;;;41.40;;
56999;SDS011;42891;50.006;21.964;2024-03-22T07:54:10;68.82;;;43.13;;
56999;SDS011;42891;50.006;21.964;2024-03-22T07:58:10;76.82;;;44.78;;
56999;SDS011;42891;50.006;21.964;2024-03-22T08:02:11;86.45;;;50.03;;
56999;SDS011;42891;50.006;21.964;2024-03-22T08:06:11;83.93;;;51.70;;
56999;SDS011;42891;50.006;21.964;2024-03-22T08:10:11;81.80;;;47.20;;
56999;SDS011;42891;50.006;21.964;2024-03-22T08:14:12;77.18;;;47.83;;
56999;SDS011;42891;50.006;21.964;2024-03-22T08:18:12;76.93;;;47.90;;
56999;SDS011;42891;50.006;21.964;2024-03-22T08:22:13;71.05;;;42.85;;
56999;SDS011;42891;50.006;21.964;2024-03-22T08:26:13;68.40;;;41.30;;
56999;SDS011;42891;50.006;21.964;2024-03-22T08:30:14;77.90;;;48.33;;
56999;SDS011;42891;50.006;21.964;2024-03-22T08:34:15;74.47;;;45.25;;
56999;SDS011;42891;50.006;21.964;2024-03-22T08:38:15;73.97;;;41.47;;
56999;SDS011;42891;50.006;21.964;2024-03-22T08:42:17;74.82;;;46.20;;
56999;SDS011;42891;50.006;21.964;2024-03-22T08:46:17;66.57;;;41.97;;
56999;SDS011;42891;50.006;21.964;2024-03-22T08:50:17;65.78;;;39.75;;
56999;SDS011;42891;50.006;21.964;2024-03-22T08:54:18;62.03;;;37.80;;
56999;SDS011;42891;50.006;21.964;2024-03-22T08:58:18;62.67;;;37.15;;
56999;SDS011;42891;50.006;21.964;2024-03-22T09:02:18;57.92;;;38.03;;
56999;SDS011;42891;50.006;21.964;2024-03-22T09:06:19;58.97;;;36.42;;
56999;SDS011;42891;50.006;21.964;2024-03-22T09:10:20;64.18;;;39.58;;
56999;SDS011;42891;50.006;21.964;2024-03-22T09:14:20;64.13;;;38.83;;
56999;SDS011;42891;50.006;21.964;2024-03-22T09:18:20;69.38;;;39.95;;
56999;SDS011;42891;50.006;21.964;2024-03-22T09:22:20;61.58;;;38.15;;
56999;SDS011;42891;50.006;21.964;2024-03-22T09:26:21;60.17;;;38.13;;
56999;SDS011;42891;50.006;21.964;2024-03-22T09:30:21;59.03;;;36.20;;
56999;SDS011;42891;50.006;21.964;2024-03-22T09:34:22;61.88;;;37.95;;
56999;SDS011;42891;50.006;21.964;2024-03-22T09:38:22;56.90;;;35.63;;
56999;SDS011;42891;50.006;21.964;2024-03-22T09:42:23;55.27;;;35.63;;
56999;SDS011;42891;50.006;21.964;2024-03-22T09:46:25;59.28;;;35.95;;
56999;SDS011;42891;50.006;21.964;2024-03-22T09:50:26;55.40;;;36.13;;
56999;SDS011;42891;50.006;21.964;2024-03-22T09:54:28;66.95;;;42.17;;
56999;SDS011;42891;50.006;21.964;2024-03-22T09:58:28;59.28;;;37.83;;
56999;SDS011;42891;50.006;21.964;2024-03-22T10:02:29;61.38;;;36.60;;
56999;SDS011;42891;50.006;21.964;2024-03-22T10:06:30;92.72;;;47.92;;
56999;SDS011;42891;50.006;21.964;2024-03-22T10:10:32;57.05;;;36.72;;
56999;SDS011;42891;50.006;21.964;2024-03-22T10:14:33;57.40;;;36.53;;
56999;SDS011;42891;50.006;21.964;2024-03-22T10:18:33;56.30;;;36.22;;
56999;SDS011;42891;50.006;21.964;2024-03-22T10:22:34;55.50;;;36.35;;
56999;SDS011;42891;50.006;21.964;2024-03-22T10:26:34;54.00;;;35.15;;
56999;SDS011;42891;50.006;21.964;2024-03-22T10:30:36;56.38;;;37.35;;
56999;SDS011;42891;50.006;21.964;2024-03-22T10:34:40;55.50;;;35.55;;
56999;SDS011;42891;50.006;21.964;2024-03-22T10:38:42;51.95;;;33.17;;
56999;SDS011;42891;50.006;21.964;2024-03-22T10:42:44;53.03;;;35.40;;
56999;SDS011;42891;50.006;21.964;2024-03-22T10:46:46;47.28;;;33.45;;
56999;SDS011;42891;50.006;21.964;2024-03-22T10:50:47;49.63;;;32.25;;
56999;SDS011;42891;50.006;21.964;2024-03-22T10:54:49;56.00;;;38.42;;
56999;SDS011;42891;50.006;21.964;2024-03-22T10:58:50;55.17;;;35.17;;
56999;SDS011;42891;50.006;21.964;2024-03-22T11:02:53;53.88;;;36.88;;
56999;SDS011;42891;50.006;21.964;2024-03-22T11:06:53;51.58;;;34.83;;
56999;SDS011;42891;50.006;21.964;2024-03-22T11:10:57;56.95;;;37.67;;
56999;SDS011;42891;50.006;21.964;2024-03-22T11:14:58;51.95;;;35.58;;
56999;SDS011;42891;50.006;21.964;2024-03-22T11:18:58;54.77;;;35.47;;
56999;SDS011;42891;50.006;21.964;2024-03-22T11:22:58;54.23;;;34.30;;
56999;SDS011;42891;50.006;21.964;2024-03-22T11:26:58;49.63;;;34.33;;
56999;SDS011;42891;50.006;21.964;2024-03-22T11:30:59;53.90;;;36.33;;
56999;SDS011;42891;50.006;21.964;2024-03-22T11:34:59;56.80;;;37.38;;
56999;SDS011;42891;50.006;21.964;2024-03-22T11:39:01;53.10;;;34.40;;
56999;SDS011;42891;50.006;21.964;2024-03-22T11:43:04;56.42;;;35.80;;
56999;SDS011;42891;50.006;21.964;2024-03-22T11:47:05;54.13;;;35.25;;
56999;SDS011;42891;50.006;21.964;2024-03-22T11:51:06;51.05;;;34.30;;
56999;SDS011;42891;50.006;21.964;2024-03-22T11:55:07;49.22;;;33.70;;
56999;SDS011;42891;50.006;21.964;2024-03-22T11:59:08;44.53;;;31.73;;
56999;SDS011;42891;50.006;21.964;2024-03-22T12:03:08;47.53;;;31.85;;
56999;SDS011;42891;50.006;21.964;2024-03-22T12:07:10;46.58;;;32.15;;
56999;SDS011;42891;50.006;21.964;2024-03-22T12:11:11;43.97;;;28.67;;
56999;SDS011;42891;50.006;21.964;2024-03-22T12:15:12;46.72;;;32.25;;
56999;SDS011;42891;50.006;21.964;2024-03-22T12:19:12;48.42;;;32.03;;
56999;SDS011;42891;50.006;21.964;2024-03-22T12:23:12;49.23;;;32.20;;
56999;SDS011;42891;50.006;21.964;2024-03-22T12:27:12;46.73;;;30.10;;
56999;SDS011;42891;50.006;21.964;2024-03-22T12:31:13;43.85;;;29.17;;
56999;SDS011;42891;50.006;21.964;2024-03-22T12:35:13;41.40;;;28.77;;
56999;SDS011;42891;50.006;21.964;2024-03-22T12:39:14;41.85;;;29.60;;
56999;SDS011;42891;50.006;21.964;2024-03-22T12:43:14;41.28;;;29.80;;
56999;SDS011;42891;50.006;21.964;2024-03-22T12:47:14;41.60;;;28.88;;
56999;SDS011;42891;50.006;21.964;2024-03-22T12:51:15;44.80;;;29.60;;
56999;SDS011;42891;50.006;21.964;2024-03-22T12:55:15;41.17;;;28.73;;
56999;SDS011;42891;50.006;21.964;2024-03-22T12:59:16;41.50;;;27.23;;
56999;SDS011;42891;50.006;21.964;2024-03-22T13:03:16;42.03;;;28.00;;
56999;SDS011;42891;50.006;21.964;2024-03-22T13:07:17;43.63;;;27.95;;
56999;SDS011;42891;50.006;21.964;2024-03-22T13:11:17;46.25;;;30.98;;
56999;SDS011;42891;50.006;21.964;2024-03-22T13:15:18;44.35;;;31.15;;
56999;SDS011;42891;50.006;21.964;2024-03-22T13:19:18;43.40;;;30.90;;
56999;SDS011;42891;50.006;21.964;2024-03-22T13:23:18;44.63;;;30.58;;
56999;SDS011;42891;50.006;21.964;2024-03-22T13:27:19;45.78;;;31.42;;
56999;SDS011;42891;50.006;21.964;2024-03-22T13:31:22;51.65;;;33.10;;
56999;SDS011;42891;50.006;21.964;2024-03-22T13:35:23;49.22;;;32.53;;
56999;SDS011;42891;50.006;21.964;2024-03-22T13:39:23;48.28;;;30.73;;
56999;SDS011;42891;50.006;21.964;2024-03-22T13:43:27;45.13;;;30.20;;
56999;SDS011;42891;50.006;21.964;2024-03-22T13:47:27;44.35;;;29.90;;
56999;SDS011;42891;50.006;21.964;2024-03-22T13:51:28;44.88;;;30.30;;
56999;SDS011;42891;50.006;21.964;2024-03-22T13:55:29;50.63;;;32.63;;
56999;SDS011;42891;50.006;21.964;2024-03-22T13:59:29;51.73;;;33.17;;
56999;SDS011;42891;50.006;21.964;2024-03-22T14:03:29;48.38;;;32.55;;
56999;SDS011;42891;50.006;21.964;2024-03-22T14:07:30;54.95;;;33.15;;
56999;SDS011;42891;50.006;21.964;2024-03-22T14:11:30;46.97;;;31.38;;
56999;SDS011;42891;50.006;21.964;2024-03-22T14:15:31;45.33;;;31.65;;
56999;SDS011;42891;50.006;21.964;2024-03-22T14:19:32;44.53;;;30.13;;
56999;SDS011;42891;50.006;21.964;2024-03-22T14:23:32;49.23;;;31.77;;
56999;SDS011;42891;50.006;21.964;2024-03-22T14:27:32;46.53;;;30.27;;
56999;SDS011;42891;50.006;21.964;2024-03-22T14:31:33;50.25;;;32.78;;
56999;SDS011;42891;50.006;21.964;2024-03-22T14:35:33;42.22;;;28.42;;
56999;SDS011;42891;50.006;21.964;2024-03-22T14:39:34;45.88;;;29.65;;
56999;SDS011;42891;50.006;21.964;2024-03-22T14:43:34;45.05;;;28.52;;
56999;SDS011;42891;50.006;21.964;2024-03-22T14:47:37;41.60;;;28.00;;
56999;SDS011;42891;50.006;21.964;2024-03-22T14:51:37;42.53;;;28.35;;
56999;SDS011;42891;50.006;21.964;2024-03-22T14:55:38;42.88;;;28.52;;
56999;SDS011;42891;50.006;21.964;2024-03-22T14:59:38;44.13;;;28.08;;
56999;SDS011;42891;50.006;21.964;2024-03-22T15:03:38;45.53;;;31.27;;
56999;SDS011;42891;50.006;21.964;2024-03-22T15:07:39;39.60;;;29.00;;
56999;SDS011;42891;50.006;21.964;2024-03-22T15:11:39;44.47;;;29.93;;
56999;SDS011;42891;50.006;21.964;2024-03-22T15:15:39;43.55;;;29.77;;
56999;SDS011;42891;50.006;21.964;2024-03-22T15:19:40;43.00;;;29.38;;
56999;SDS011;42891;50.006;21.964;2024-03-22T15:23:40;42.03;;;30.03;;
56999;SDS011;42891;50.006;21.964;2024-03-22T15:27:40;39.97;;;28.17;;
56999;SDS011;42891;50.006;21.964;2024-03-22T15:31:41;41.28;;;28.33;;
56999;SDS011;42891;50.006;21.964;2024-03-22T15:35:41;42.00;;;28.90;;
56999;SDS011;42891;50.006;21.964;2024-03-22T15:39:47;43.33;;;27.00;;
56999;SDS011;42891;50.006;21.964;2024-03-22T15:43:48;36.45;;;26.15;;
56999;SDS011;42891;50.006;21.964;2024-03-22T15:47:48;32.67;;;22.83;;
56999;SDS011;42891;50.006;21.964;2024-03-22T15:51:48;32.60;;;21.97;;
56999;SDS011;42891;50.006;21.964;2024-03-22T15:55:49;35.40;;;22.88;;
56999;SDS011;42891;50.006;21.964;2024-03-22T15:59:49;39.05;;;24.83;;
56999;SDS011;42891;50.006;21.964;2024-03-22T16:03:49;37.03;;;24.85;;
56999;SDS011;42891;50.006;21.964;2024-03-22T16:07:50;37.50;;;24.77;;
56999;SDS011;42891;50.006;21.964;2024-03-22T16:11:50;41.15;;;27.27;;
56999;SDS011;42891;50.006;21.964;2024-03-22T16:15:51;40.10;;;26.48;;
56999;SDS011;42891;50.006;21.964;2024-03-22T16:19:51;36.77;;;24.97;;
56999;SDS011;42891;50.006;21.964;2024-03-22T16:23:51;40.00;;;24.27;;
56999;SDS011;42891;50.006;21.964;2024-03-22T16:27:51;44.00;;;28.20;;
56999;SDS011;42891;50.006;21.964;2024-03-22T16:31:52;41.55;;;27.00;;
56999;SDS011;42891;50.006;21.964;2024-03-22T16:35:53;46.25;;;26.88;;
56999;SDS011;42891;50.006;21.964;2024-03-22T16:39:54;39.25;;;24.77;;
56999;SDS011;42891;50.006;21.964;2024-03-22T16:43:54;38.28;;;24.60;;
56999;SDS011;42891;50.006;21.964;2024-03-22T16:47:56;38.60;;;24.90;;
56999;SDS011;42891;50.006;21.964;2024-03-22T16:51:56;44.53;;;28.20;;
56999;SDS011;42891;50.006;21.964;2024-03-22T16:55:57;41.88;;;26.58;;
56999;SDS011;42891;50.006;21.964;2024-03-22T16:59:57;41.33;;;27.87;;
56999;SDS011;42891;50.006;21.964;2024-03-22T17:03:57;39.10;;;24.70;;
56999;SDS011;42891;50.006;21.964;2024-03-22T17:07:57;39.13;;;27.45;;
56999;SDS011;42891;50.006;21.964;2024-03-22T17:11:58;46.72;;;26.55;;
56999;SDS011;42891;50.006;21.964;2024-03-22T17:15:58;40.30;;;25.77;;
56999;SDS011;42891;50.006;21.964;2024-03-22T17:19:59;68.82;;;36.97;;
56999;SDS011;42891;50.006;21.964;2024-03-22T17:23:59;70.95;;;41.13;;
56999;SDS011;42891;50.006;21.964;2024-03-22T17:27:59;57.83;;;38.63;;
56999;SDS011;42891;50.006;21.964;2024-03-22T17:32:00;52.73;;;37.33;;
56999;SDS011;42891;50.006;21.964;2024-03-22T17:36:00;40.80;;;27.52;;
56999;SDS011;42891;50.006;21.964;2024-03-22T17:40:00;41.57;;;24.43;;
56999;SDS011;42891;50.006;21.964;2024-03-22T17:44:01;40.03;;;25.23;;
56999;SDS011;42891;50.006;21.964;2024-03-22T17:48:01;40.80;;;25.98;;
56999;SDS011;42891;50.006;21.964;2024-03-22T17:52:01;45.17;;;27.20;;
56999;SDS011;42891;50.006;21.964;2024-03-22T17:56:02;41.35;;;25.75;;
56999;SDS011;42891;50.006;21.964;2024-03-22T18:00:03;47.95;;;28.30;;
56999;SDS011;42891;50.006;21.964;2024-03-22T18:04:04;44.80;;;27.17;;
56999;SDS011;42891;50.006;21.964;2024-03-22T18:08:05;49.20;;;28.85;;
56999;SDS011;42891;50.006;21.964;2024-03-22T18:12:06;48.70;;;30.63;;
56999;SDS011;42891;50.006;21.964;2024-03-22T18:16:06;52.72;;;32.35;;
56999;SDS011;42891;50.006;21.964;2024-03-22T18:20:07;59.43;;;35.10;;
56999;SDS011;42891;50.006;21.964;2024-03-22T18:24:08;56.85;;;33.25;;
56999;SDS011;42891;50.006;21.964;2024-03-22T18:28:09;57.85;;;36.33;;
56999;SDS011;42891;50.006;21.964;2024-03-22T18:32:10;47.70;;;31.13;;
56999;SDS011;42891;50.006;21.964;2024-03-22T18:36:10;42.63;;;27.07;;
56999;SDS011;42891;50.006;21.964;2024-03-22T18:40:10;39.95;;;27.27;;
56999;SDS011;42891;50.006;21.964;2024-03-22T18:44:11;43.42;;;27.73;;
56999;SDS011;42891;50.006;21.964;2024-03-22T18:48:11;49.85;;;34.17;;
56999;SDS011;42891;50.006;21.964;2024-03-22T18:52:12;50.65;;;34.42;;
56999;SDS011;42891;50.006;21.964;2024-03-22T18:56:13;42.35;;;27.83;;
56999;SDS011;42891;50.006;21.964;2024-03-22T19:00:13;37.10;;;22.52;;
56999;SDS011;42891;50.006;21.964;2024-03-22T19:04:13;60.95;;;35.63;;
56999;SDS011;42891;50.006;21.964;2024-03-22T19:08:14;54.90;;;33.75;;
56999;SDS011;42891;50.006;21.964;2024-03-22T19:12:14;54.50;;;33.38;;
56999;SDS011;42891;50.006;21.964;2024-03-22T19:16:14;31.92;;;20.15;;
56999;SDS011;42891;50.006;21.964;2024-03-22T19:20:15;31.02;;;19.33;;
56999;SDS011;42891;50.006;21.964;2024-03-22T19:24:16;32.95;;;19.83;;
56999;SDS011;42891;50.006;21.964;2024-03-22T19:28:17;36.33;;;21.08;;
56999;SDS011;42891;50.006;21.964;2024-03-22T19:32:18;28.08;;;17.83;;
56999;SDS011;42891;50.006;21.964;2024-03-22T19:36:18;30.88;;;20.33;;
56999;SDS011;42891;50.006;21.964;2024-03-22T19:40:20;30.27;;;20.17;;
56999;SDS011;42891;50.006;21.964;2024-03-22T19:44:20;30.55;;;19.48;;
56999;SDS011;42891;50.006;21.964;2024-03-22T19:48:20;26.17;;;15.83;;
56999;SDS011;42891;50.006;21.964;2024-03-22T19:52:21;27.20;;;17.63;;
56999;SDS011;42891;50.006;21.964;2024-03-22T19:56:21;27.65;;;17.33;;
56999;SDS011;42891;50.006;21.964;2024-03-22T20:00:22;28.00;;;17.63;;
56999;SDS011;42891;50.006;21.964;2024-03-22T20:04:23;27.88;;;17.30;;
56999;SDS011;42891;50.006;21.964;2024-03-22T20:08:23;21.93;;;14.37;;
56999;SDS011;42891;50.006;21.964;2024-03-22T20:12:23;24.13;;;16.13;;
56999;SDS011;42891;50.006;21.964;2024-03-22T20:16:24;23.75;;;15.48;;
56999;SDS011;42891;50.006;21.964;2024-03-22T20:20:25;26.95;;;16.90;;
56999;SDS011;42891;50.006;21.964;2024-03-22T20:24:25;27.40;;;15.38;;
56999;SDS011;42891;50.006;21.964;2024-03-22T20:28:25;27.50;;;18.37;;
56999;SDS011;42891;50.006;21.964;2024-03-22T20:32:26;29.13;;;19.45;;
56999;SDS011;42891;50.006;21.964;2024-03-22T20:36:26;25.85;;;16.88;;
